Terminal Aerodrome Forecast
Issued by NWS

Home | Current Version | Previous Version | Text Only | Print | Product List | Glossary On
Versions: 1 2 3 4 5 6 7 8 9 10 11 12 13 14 15
000
FTUS43 KGLD 221727 AAA
TAFMCK
TAF AMD
KMCK 221727Z 2217/2318 10006KT P6SM SCT250
     FM222100 13006KT P6SM SCT250
     FM230600 14006KT P6SM VCTS BKN070CB
     FM231300 21005KT P6SM SCT250
     FM231600 27007KT P6SM SCT250
     FM231700 21006KT P6SM SCT250=

USA.gov is the U.S. government's official web portal to all federal, state and local government web resources and services.